Weather forecast for 4. Spain Ager

Paragliding World Cup, 633 m
N42.001, E0.761


Sounding

Red line — air temperature ˚C.
Blue line — thermal bubble temperature ˚C.
Green line — dew point temperature ˚C.
Wind speed is in meters per second.

Table forecast

GFS 0.25˚ model

temp. wind gust humid. clouds prec. press. hpbl
Mon14 00:00 22 97.0 e 1 1 41 44 0.0 1020 11
03:00 20 13.0 nne 2 2 50 41 0.0 1020 12
06:00 19 7.0 n 2 2 57 5 0.0 1019 15
09:00 21 9.0 n 1 2 52 0 0.0 1019 66
12:00 30 243.0 wsw 0 1 28 0 0.0 1018 991
15:00 32 215.0 sw 4 3 20 5 0.0 1017 2972
18:00 33 229.0 sw 5 4 17 0 0.0 1015 3039
21:00 31 224.0 sw 4 6 22 71 0.0 1015 678
 
Tue15 00:00 22 39.0 ne 2 2 50 0 0.0 1018 18
03:00 20 16.0 nne 2 2 61 0 0.0 1018 19
06:00 18 15.0 nne 1 1 59 5 0.0 1018 11
09:00 21 28.0 nne 1 1 49 5 0.0 1019 77
12:00 28 158.0 sse 2 1 34 0 0.0 1018 876
15:00 32 181.0 s 3 2 21 0 0.0 1016 2487
18:00 33 201.0 ssw 4 3 19 0 0.0 1013 3235
21:00 27 189.0 s 5 7 27 100 0.1 1015 609
 
Wed16 00:00 21 69.0 ene 2 2 44 100 0.1 1017 16
03:00 20 40.0 ne 2 2 48 95 0.1 1016 13
06:00 18 25.0 nne 2 2 50 58 0.0 1015 16
09:00 21 27.0 nne 2 2 48 56 0.0 1015 65
12:00 28 152.0 sse 2 3 31 100 0.0 1013 1322
15:00 31 182.0 s 4 5 23 61 0.0 1011 2596
18:00 27 210.0 ssw 8 8 36 100 0.1 1012 1594
21:00 22 16.0 nne 2 3 54 100 0.1 1011 332
 
Thu17 00:00 19 12.0 nne 2 2 65 87 0.0 1013 18
03:00 18 26.0 nne 1 1 68 100 0.0 1012 11
06:00 17 29.0 nne 2 2 68 3 0.0 1011 19
09:00 20 127.0 se 2 3 60 100 0.0 1011 126
12:00 19 224.0 sw 2 2 67 100 0.4 1011 156
15:00 16 243.0 wsw 2 2 85 100 2.6 1012 468
18:00 21 314.0 nw 1 1 63 27 3.4 1011 713
21:00 20 231.0 sw 2 2 57 3 3.4 1011 980
 
Fri18 00:00 15 346.0 nnw 2 2 84 5 0.0 1014 20
03:00 14 37.0 ne 1 1 85 90 0.0 1014 11
06:00 14 57.0 ene 2 2 87 75 0.0 1015 16
09:00 16 23.0 nne 2 2 74 0 0.0 1015 123
12:00 24 107.0 ese 2 3 43 5 0.0 1014 1037
15:00 25 147.0 sse 5 5 39 87 0.0 1014 2262
18:00 25 154.0 sse 7 6 42 19 0.1 1013 1761
21:00 21 117.0 ese 4 5 61 64 0.1 1014 876
 

0.013 s